sensor_id;sensor_type;location;lat;lon;timestamp;temperature;humidity
23713;DHT22;12035;49.978;8.298;2023-01-25T00:04:23;5.50;73.50
23713;DHT22;12035;49.978;8.298;2023-01-25T00:09:21;5.50;73.50
23713;DHT22;12035;49.978;8.298;2023-01-25T00:14:21;5.50;73.60
23713;DHT22;12035;49.978;8.298;2023-01-25T00:19:18;5.50;73.70
23713;DHT22;12035;49.978;8.298;2023-01-25T00:24:16;5.50;73.50
23713;DHT22;12035;49.978;8.298;2023-01-25T00:29:13;5.50;73.60
23713;DHT22;12035;49.978;8.298;2023-01-25T00:34:41;5.50;73.70
23713;DHT22;12035;49.978;8.298;2023-01-25T00:39:41;5.50;73.70
23713;DHT22;12035;49.978;8.298;2023-01-25T00:44:38;5.50;73.60
23713;DHT22;12035;49.978;8.298;2023-01-25T00:49:35;5.50;73.70
23713;DHT22;12035;49.978;8.298;2023-01-25T00:54:36;5.50;73.70
23713;DHT22;12035;49.978;8.298;2023-01-25T00:59:33;5.50;73.80
23713;DHT22;12035;49.978;8.298;2023-01-25T01:04:30;5.50;73.70
23713;DHT22;12035;49.978;8.298;2023-01-25T01:09:28;5.40;73.70
23713;DHT22;12035;49.978;8.298;2023-01-25T01:14:26;5.40;73.70
23713;DHT22;12035;49.978;8.298;2023-01-25T01:19:24;5.40;73.70
23713;DHT22;12035;49.978;8.298;2023-01-25T01:24:21;5.40;73.70
23713;DHT22;12035;49.978;8.298;2023-01-25T01:29:18;5.40;73.80
23713;DHT22;12035;49.978;8.298;2023-01-25T01:34:18;5.40;73.90
23713;DHT22;12035;49.978;8.298;2023-01-25T01:39:16;5.40;73.90
23713;DHT22;12035;49.978;8.298;2023-01-25T01:44:16;5.40;73.80
23713;DHT22;12035;49.978;8.298;2023-01-25T01:49:20;5.40;73.90
23713;DHT22;12035;49.978;8.298;2023-01-25T01:54:22;5.40;74.00
23713;DHT22;12035;49.978;8.298;2023-01-25T01:59:25;5.40;73.90
23713;DHT22;12035;49.978;8.298;2023-01-25T02:04:27;5.30;73.90
23713;DHT22;12035;49.978;8.298;2023-01-25T02:09:28;5.30;74.10
23713;DHT22;12035;49.978;8.298;2023-01-25T02:14:27;5.30;74.20
23713;DHT22;12035;49.978;8.298;2023-01-25T02:19:35;5.20;74.30
23713;DHT22;12035;49.978;8.298;2023-01-25T02:24:38;5.20;74.40
23713;DHT22;12035;49.978;8.298;2023-01-25T02:29:40;5.20;74.40
23713;DHT22;12035;49.978;8.298;2023-01-25T02:34:37;5.20;74.50
23713;DHT22;12035;49.978;8.298;2023-01-25T02:39:34;5.20;74.70
23713;DHT22;12035;49.978;8.298;2023-01-25T02:44:32;5.20;74.70
23713;DHT22;12035;49.978;8.298;2023-01-25T02:49:33;5.20;74.80
23713;DHT22;12035;49.978;8.298;2023-01-25T02:54:31;5.20;74.90
23713;DHT22;12035;49.978;8.298;2023-01-25T02:59:29;5.10;74.70
23713;DHT22;12035;49.978;8.298;2023-01-25T03:04:26;5.10;74.70
23713;DHT22;12035;49.978;8.298;2023-01-25T03:09:25;5.20;74.80
23713;DHT22;12035;49.978;8.298;2023-01-25T03:14:22;5.20;74.90
23713;DHT22;12035;49.978;8.298;2023-01-25T03:19:19;5.20;74.90
23713;DHT22;12035;49.978;8.298;2023-01-25T03:24:17;5.20;74.90
23713;DHT22;12035;49.978;8.298;2023-01-25T03:29:15;5.10;74.90
23713;DHT22;12035;49.978;8.298;2023-01-25T03:34:12;5.20;75.00
23713;DHT22;12035;49.978;8.298;2023-01-25T03:39:09;5.20;75.00
23713;DHT22;12035;49.978;8.298;2023-01-25T03:44:07;5.20;75.10
23713;DHT22;12035;49.978;8.298;2023-01-25T03:49:07;5.20;75.10
23713;DHT22;12035;49.978;8.298;2023-01-25T03:54:05;5.20;75.20
23713;DHT22;12035;49.978;8.298;2023-01-25T03:59:03;5.20;75.20
23713;DHT22;12035;49.978;8.298;2023-01-25T04:04:00;5.10;75.40
23713;DHT22;12035;49.978;8.298;2023-01-25T04:08:58;5.10;75.40
23713;DHT22;12035;49.978;8.298;2023-01-25T04:13:55;5.10;75.50
23713;DHT22;12035;49.978;8.298;2023-01-25T04:18:52;5.10;75.60
23713;DHT22;12035;49.978;8.298;2023-01-25T04:23:50;5.10;75.60
23713;DHT22;12035;49.978;8.298;2023-01-25T04:28:48;5.10;75.60
23713;DHT22;12035;49.978;8.298;2023-01-25T04:33:46;5.10;75.60
23713;DHT22;12035;49.978;8.298;2023-01-25T04:38:43;5.10;75.70
23713;DHT22;12035;49.978;8.298;2023-01-25T04:43:40;5.10;75.70
23713;DHT22;12035;49.978;8.298;2023-01-25T04:48:41;5.10;75.90
23713;DHT22;12035;49.978;8.298;2023-01-25T04:53:38;5.00;75.90
23713;DHT22;12035;49.978;8.298;2023-01-25T04:58:35;5.10;76.00
23713;DHT22;12035;49.978;8.298;2023-01-25T05:03:32;5.00;76.10
23713;DHT22;12035;49.978;8.298;2023-01-25T05:08:30;5.00;76.10
23713;DHT22;12035;49.978;8.298;2023-01-25T05:13:27;5.00;76.00
23713;DHT22;12035;49.978;8.298;2023-01-25T05:18:24;5.00;75.90
23713;DHT22;12035;49.978;8.298;2023-01-25T05:23:22;5.00;76.00
23713;DHT22;12035;49.978;8.298;2023-01-25T05:28:20;5.00;76.00
23713;DHT22;12035;49.978;8.298;2023-01-25T05:33:17;5.00;76.20
23713;DHT22;12035;49.978;8.298;2023-01-25T05:38:15;5.00;76.10
23713;DHT22;12035;49.978;8.298;2023-01-25T05:43:12;5.00;76.10
23713;DHT22;12035;49.978;8.298;2023-01-25T05:48:11;5.10;76.20
23713;DHT22;12035;49.978;8.298;2023-01-25T05:53:08;5.00;76.30
23713;DHT22;12035;49.978;8.298;2023-01-25T05:58:04;5.00;76.40
23713;DHT22;12035;49.978;8.298;2023-01-25T06:03:01;5.00;76.40
23713;DHT22;12035;49.978;8.298;2023-01-25T06:08:00;5.00;76.40
23713;DHT22;12035;49.978;8.298;2023-01-25T06:12:57;5.10;76.60
23713;DHT22;12035;49.978;8.298;2023-01-25T06:17:55;5.00;76.50
23713;DHT22;12035;49.978;8.298;2023-01-25T06:22:52;5.00;76.60
23713;DHT22;12035;49.978;8.298;2023-01-25T06:27:53;5.00;76.70
23713;DHT22;12035;49.978;8.298;2023-01-25T06:32:51;5.00;76.70
23713;DHT22;12035;49.978;8.298;2023-01-25T06:37:48;5.00;76.50
23713;DHT22;12035;49.978;8.298;2023-01-25T06:42:45;5.00;76.70
23713;DHT22;12035;49.978;8.298;2023-01-25T06:47:44;5.00;76.80
23713;DHT22;12035;49.978;8.298;2023-01-25T06:52:42;5.00;76.70
23713;DHT22;12035;49.978;8.298;2023-01-25T06:57:39;5.00;76.70
23713;DHT22;12035;49.978;8.298;2023-01-25T07:02:36;5.00;76.50
23713;DHT22;12035;49.978;8.298;2023-01-25T07:07:34;5.00;76.60
23713;DHT22;12035;49.978;8.298;2023-01-25T07:12:31;5.00;76.70
23713;DHT22;12035;49.978;8.298;2023-01-25T07:17:29;5.00;76.90
23713;DHT22;12035;49.978;8.298;2023-01-25T07:22:30;5.00;76.90
23713;DHT22;12035;49.978;8.298;2023-01-25T07:27:32;5.00;77.00
23713;DHT22;12035;49.978;8.298;2023-01-25T07:32:29;5.00;77.00
23713;DHT22;12035;49.978;8.298;2023-01-25T07:37:26;5.00;76.90
23713;DHT22;12035;49.978;8.298;2023-01-25T07:42:25;5.00;77.00
23713;DHT22;12035;49.978;8.298;2023-01-25T07:47:22;4.90;77.10
23713;DHT22;12035;49.978;8.298;2023-01-25T07:52:19;4.90;77.10
23713;DHT22;12035;49.978;8.298;2023-01-25T07:57:17;4.90;78.10
23713;DHT22;12035;49.978;8.298;2023-01-25T08:02:16;4.80;77.20
23713;DHT22;12035;49.978;8.298;2023-01-25T08:07:13;4.90;77.30
23713;DHT22;12035;49.978;8.298;2023-01-25T08:12:10;4.90;77.30
23713;DHT22;12035;49.978;8.298;2023-01-25T08:17:07;5.00;77.50
23713;DHT22;12035;49.978;8.298;2023-01-25T08:22:07;5.00;77.70
23713;DHT22;12035;49.978;8.298;2023-01-25T08:27:04;5.00;77.60
23713;DHT22;12035;49.978;8.298;2023-01-25T08:32:02;5.00;77.40
23713;DHT22;12035;49.978;8.298;2023-01-25T08:37:00;5.00;77.20
23713;DHT22;12035;49.978;8.298;2023-01-25T08:41:59;5.00;77.20
23713;DHT22;12035;49.978;8.298;2023-01-25T08:46:56;5.00;77.30
23713;DHT22;12035;49.978;8.298;2023-01-25T08:51:53;5.00;77.20
23713;DHT22;12035;49.978;8.298;2023-01-25T08:56:50;5.10;77.30
23713;DHT22;12035;49.978;8.298;2023-01-25T09:01:49;5.10;77.10
23713;DHT22;12035;49.978;8.298;2023-01-25T09:06:46;5.20;77.00
23713;DHT22;12035;49.978;8.298;2023-01-25T09:11:43;5.10;77.10
23713;DHT22;12035;49.978;8.298;2023-01-25T09:16:40;5.10;77.20
23713;DHT22;12035;49.978;8.298;2023-01-25T09:21:39;5.10;77.30
23713;DHT22;12035;49.978;8.298;2023-01-25T09:26:38;5.00;77.20
23713;DHT22;12035;49.978;8.298;2023-01-25T09:31:38;5.00;77.20
23713;DHT22;12035;49.978;8.298;2023-01-25T09:36:39;5.00;77.20
23713;DHT22;12035;49.978;8.298;2023-01-25T09:42:20;5.00;77.30
23713;DHT22;12035;49.978;8.298;2023-01-25T09:47:37;5.00;77.60
23713;DHT22;12035;49.978;8.298;2023-01-25T09:58:23;5.10;77.30
23713;DHT22;12035;49.978;8.298;2023-01-25T10:03:26;5.10;77.20
23713;DHT22;12035;49.978;8.298;2023-01-25T10:08:31;5.10;77.20
23713;DHT22;12035;49.978;8.298;2023-01-25T10:13:31;5.20;77.30
23713;DHT22;12035;49.978;8.298;2023-01-25T10:18:32;5.20;77.30
23713;DHT22;12035;49.978;8.298;2023-01-25T10:23:55;5.20;77.20
23713;DHT22;12035;49.978;8.298;2023-01-25T10:29:10;5.30;77.10
23713;DHT22;12035;49.978;8.298;2023-01-25T10:34:16;5.20;76.90
23713;DHT22;12035;49.978;8.298;2023-01-25T10:39:17;5.20;76.80
23713;DHT22;12035;49.978;8.298;2023-01-25T10:44:15;5.10;76.90
23713;DHT22;12035;49.978;8.298;2023-01-25T10:49:26;5.10;76.90
23713;DHT22;12035;49.978;8.298;2023-01-25T10:54:35;5.10;77.00
23713;DHT22;12035;49.978;8.298;2023-01-25T10:59:33;5.10;76.90
23713;DHT22;12035;49.978;8.298;2023-01-25T11:04:33;5.20;77.00
23713;DHT22;12035;49.978;8.298;2023-01-25T11:09:36;5.10;76.90
23713;DHT22;12035;49.978;8.298;2023-01-25T11:14:34;5.10;76.70
23713;DHT22;12035;49.978;8.298;2023-01-25T11:19:34;5.10;76.80
23713;DHT22;12035;49.978;8.298;2023-01-25T11:24:34;5.10;76.90
23713;DHT22;12035;49.978;8.298;2023-01-25T11:29:32;5.10;77.00
23713;DHT22;12035;49.978;8.298;2023-01-25T11:34:30;5.10;77.00
23713;DHT22;12035;49.978;8.298;2023-01-25T11:39:45;5.00;77.10
23713;DHT22;12035;49.978;8.298;2023-01-25T11:44:58;5.10;77.20
23713;DHT22;12035;49.978;8.298;2023-01-25T11:50:06;5.10;77.20
23713;DHT22;12035;49.978;8.298;2023-01-25T11:55:21;5.00;77.00
23713;DHT22;12035;49.978;8.298;2023-01-25T12:00:33;5.00;77.20
23713;DHT22;12035;49.978;8.298;2023-01-25T12:05:42;5.00;77.20
23713;DHT22;12035;49.978;8.298;2023-01-25T12:10:55;5.10;77.30
23713;DHT22;12035;49.978;8.298;2023-01-25T12:21:34;5.30;77.10
23713;DHT22;12035;49.978;8.298;2023-01-25T12:26:48;5.40;76.90
23713;DHT22;12035;49.978;8.298;2023-01-25T12:31:54;5.50;76.80
23713;DHT22;12035;49.978;8.298;2023-01-25T12:36:56;5.50;76.40
23713;DHT22;12035;49.978;8.298;2023-01-25T12:41:59;5.50;76.30
23713;DHT22;12035;49.978;8.298;2023-01-25T12:47:03;5.40;76.10
23713;DHT22;12035;49.978;8.298;2023-01-25T12:52:06;5.40;76.30
23713;DHT22;12035;49.978;8.298;2023-01-25T12:57:23;5.40;76.50
23713;DHT22;12035;49.978;8.298;2023-01-25T13:07:55;5.40;76.10
23713;DHT22;12035;49.978;8.298;2023-01-25T13:13:00;5.30;76.10
23713;DHT22;12035;49.978;8.298;2023-01-25T13:17:58;5.30;76.00
23713;DHT22;12035;49.978;8.298;2023-01-25T13:22:57;5.30;76.00
23713;DHT22;12035;49.978;8.298;2023-01-25T13:28:38;5.20;76.10
23713;DHT22;12035;49.978;8.298;2023-01-25T13:33:37;5.10;76.30
23713;DHT22;12035;49.978;8.298;2023-01-25T13:38:34;5.10;76.30
23713;DHT22;12035;49.978;8.298;2023-01-25T13:43:31;5.10;76.40
23713;DHT22;12035;49.978;8.298;2023-01-25T13:48:30;5.00;76.40
23713;DHT22;12035;49.978;8.298;2023-01-25T13:53:29;5.00;76.40
23713;DHT22;12035;49.978;8.298;2023-01-25T13:58:31;5.00;76.50
23713;DHT22;12035;49.978;8.298;2023-01-25T14:03:35;5.00;76.70
23713;DHT22;12035;49.978;8.298;2023-01-25T14:08:42;5.00;76.90
23713;DHT22;12035;49.978;8.298;2023-01-25T14:13:54;5.00;76.80
23713;DHT22;12035;49.978;8.298;2023-01-25T14:18:53;5.10;76.70
23713;DHT22;12035;49.978;8.298;2023-01-25T14:23:51;5.10;76.50
23713;DHT22;12035;49.978;8.298;2023-01-25T14:28:50;5.10;76.40
23713;DHT22;12035;49.978;8.298;2023-01-25T14:33:53;5.10;76.40
23713;DHT22;12035;49.978;8.298;2023-01-25T14:38:54;5.10;76.50
23713;DHT22;12035;49.978;8.298;2023-01-25T14:43:53;5.10;76.50
23713;DHT22;12035;49.978;8.298;2023-01-25T14:49:07;5.20;76.60
23713;DHT22;12035;49.978;8.298;2023-01-25T14:54:14;5.20;76.20
23713;DHT22;12035;49.978;8.298;2023-01-25T14:59:26;5.20;76.20
23713;DHT22;12035;49.978;8.298;2023-01-25T15:04:27;5.20;76.40
23713;DHT22;12035;49.978;8.298;2023-01-25T15:09:38;5.30;76.50
23713;DHT22;12035;49.978;8.298;2023-01-25T15:14:46;5.30;76.20
23713;DHT22;12035;49.978;8.298;2023-01-25T15:19:52;5.40;76.00
23713;DHT22;12035;49.978;8.298;2023-01-25T15:24:49;5.30;75.90
23713;DHT22;12035;49.978;8.298;2023-01-25T15:29:46;5.30;76.00
23713;DHT22;12035;49.978;8.298;2023-01-25T15:34:43;5.30;76.10
23713;DHT22;12035;49.978;8.298;2023-01-25T15:39:42;5.40;76.30
23713;DHT22;12035;49.978;8.298;2023-01-25T15:44:39;5.40;76.20
23713;DHT22;12035;49.978;8.298;2023-01-25T15:49:36;5.40;75.90
23713;DHT22;12035;49.978;8.298;2023-01-25T15:54:34;5.40;75.80
23713;DHT22;12035;49.978;8.298;2023-01-25T15:59:32;5.40;75.60
23713;DHT22;12035;49.978;8.298;2023-01-25T16:04:29;5.40;75.70
23713;DHT22;12035;49.978;8.298;2023-01-25T16:09:28;5.40;75.70
23713;DHT22;12035;49.978;8.298;2023-01-25T16:14:28;5.40;75.70
23713;DHT22;12035;49.978;8.298;2023-01-25T16:19:27;5.40;75.80
23713;DHT22;12035;49.978;8.298;2023-01-25T16:24:25;5.50;75.80
23713;DHT22;12035;49.978;8.298;2023-01-25T16:29:22;5.50;75.60
23713;DHT22;12035;49.978;8.298;2023-01-25T16:34:20;5.50;75.50
23713;DHT22;12035;49.978;8.298;2023-01-25T16:39:20;5.50;75.50
23713;DHT22;12035;49.978;8.298;2023-01-25T16:44:18;5.50;75.50
23713;DHT22;12035;49.978;8.298;2023-01-25T16:49:17;5.40;75.40
23713;DHT22;12035;49.978;8.298;2023-01-25T16:54:15;5.50;75.50
23713;DHT22;12035;49.978;8.298;2023-01-25T16:59:16;5.40;75.50
23713;DHT22;12035;49.978;8.298;2023-01-25T17:04:14;5.40;75.30
23713;DHT22;12035;49.978;8.298;2023-01-25T17:09:14;5.40;75.20
23713;DHT22;12035;49.978;8.298;2023-01-25T17:14:16;5.40;75.30
23713;DHT22;12035;49.978;8.298;2023-01-25T17:19:15;5.40;75.30
23713;DHT22;12035;49.978;8.298;2023-01-25T17:24:14;5.40;75.30
23713;DHT22;12035;49.978;8.298;2023-01-25T17:29:15;5.40;75.30
23713;DHT22;12035;49.978;8.298;2023-01-25T17:34:14;5.40;75.20
23713;DHT22;12035;49.978;8.298;2023-01-25T17:39:15;5.30;75.00
23713;DHT22;12035;49.978;8.298;2023-01-25T17:44:16;5.30;75.10
23713;DHT22;12035;49.978;8.298;2023-01-25T17:49:16;5.30;75.20
23713;DHT22;12035;49.978;8.298;2023-01-25T17:54:13;5.30;75.30
23713;DHT22;12035;49.978;8.298;2023-01-25T17:59:10;5.20;75.20
23713;DHT22;12035;49.978;8.298;2023-01-25T18:04:09;5.20;75.30
23713;DHT22;12035;49.978;8.298;2023-01-25T18:09:07;5.30;75.60
23713;DHT22;12035;49.978;8.298;2023-01-25T18:14:07;5.30;75.60
23713;DHT22;12035;49.978;8.298;2023-01-25T18:19:05;5.30;75.30
23713;DHT22;12035;49.978;8.298;2023-01-25T18:24:19;5.30;75.30
23713;DHT22;12035;49.978;8.298;2023-01-25T18:29:34;5.30;75.30
23713;DHT22;12035;49.978;8.298;2023-01-25T18:34:36;5.30;75.40
23713;DHT22;12035;49.978;8.298;2023-01-25T18:39:34;5.30;75.30
23713;DHT22;12035;49.978;8.298;2023-01-25T18:44:31;5.30;75.30
23713;DHT22;12035;49.978;8.298;2023-01-25T18:49:29;5.30;75.30
23713;DHT22;12035;49.978;8.298;2023-01-25T18:54:27;5.30;75.30
23713;DHT22;12035;49.978;8.298;2023-01-25T18:59:26;5.30;75.30
23713;DHT22;12035;49.978;8.298;2023-01-25T19:04:24;5.30;75.20
23713;DHT22;12035;49.978;8.298;2023-01-25T19:09:24;5.30;75.20
23713;DHT22;12035;49.978;8.298;2023-01-25T19:14:22;5.20;75.10
23713;DHT22;12035;49.978;8.298;2023-01-25T19:19:22;5.30;75.30
23713;DHT22;12035;49.978;8.298;2023-01-25T19:24:19;5.20;75.20
23713;DHT22;12035;49.978;8.298;2023-01-25T19:29:16;5.20;75.20
23713;DHT22;12035;49.978;8.298;2023-01-25T19:34:13;5.20;75.40
23713;DHT22;12035;49.978;8.298;2023-01-25T19:39:12;5.10;75.40
23713;DHT22;12035;49.978;8.298;2023-01-25T19:44:12;5.10;75.60
23713;DHT22;12035;49.978;8.298;2023-01-25T19:49:10;5.20;76.40
23713;DHT22;12035;49.978;8.298;2023-01-25T19:54:12;5.20;75.60
23713;DHT22;12035;49.978;8.298;2023-01-25T19:59:12;5.30;75.50
23713;DHT22;12035;49.978;8.298;2023-01-25T20:04:11;5.20;75.20
23713;DHT22;12035;49.978;8.298;2023-01-25T20:09:12;5.20;75.20
23713;DHT22;12035;49.978;8.298;2023-01-25T20:14:11;5.10;75.20
23713;DHT22;12035;49.978;8.298;2023-01-25T20:19:10;5.10;75.40
23713;DHT22;12035;49.978;8.298;2023-01-25T20:24:08;5.10;75.40
23713;DHT22;12035;49.978;8.298;2023-01-25T20:29:08;5.10;75.60
23713;DHT22;12035;49.978;8.298;2023-01-25T20:34:09;5.00;75.60
23713;DHT22;12035;49.978;8.298;2023-01-25T20:39:07;5.00;75.50
23713;DHT22;12035;49.978;8.298;2023-01-25T20:44:08;5.00;75.50
23713;DHT22;12035;49.978;8.298;2023-01-25T20:49:10;5.10;75.90
23713;DHT22;12035;49.978;8.298;2023-01-25T20:54:10;5.10;75.80
23713;DHT22;12035;49.978;8.298;2023-01-25T20:59:08;5.10;75.80
23713;DHT22;12035;49.978;8.298;2023-01-25T21:04:06;5.20;75.90
23713;DHT22;12035;49.978;8.298;2023-01-25T21:09:06;5.20;75.90
23713;DHT22;12035;49.978;8.298;2023-01-25T21:14:03;5.20;75.80
23713;DHT22;12035;49.978;8.298;2023-01-25T21:19:06;5.30;75.80
23713;DHT22;12035;49.978;8.298;2023-01-25T21:24:04;5.30;75.60
23713;DHT22;12035;49.978;8.298;2023-01-25T21:29:03;5.30;75.70
23713;DHT22;12035;49.978;8.298;2023-01-25T21:34:01;5.30;75.70
23713;DHT22;12035;49.978;8.298;2023-01-25T21:39:00;5.30;75.70
23713;DHT22;12035;49.978;8.298;2023-01-25T21:43:59;5.30;75.60
23713;DHT22;12035;49.978;8.298;2023-01-25T21:49:15;5.30;75.60
23713;DHT22;12035;49.978;8.298;2023-01-25T21:54:33;5.30;75.70
23713;DHT22;12035;49.978;8.298;2023-01-25T21:59:31;5.30;75.60
23713;DHT22;12035;49.978;8.298;2023-01-25T22:04:32;5.30;75.60
23713;DHT22;12035;49.978;8.298;2023-01-25T22:09:30;5.30;75.60
23713;DHT22;12035;49.978;8.298;2023-01-25T22:14:28;5.30;75.70
23713;DHT22;12035;49.978;8.298;2023-01-25T22:19:29;5.30;75.60
23713;DHT22;12035;49.978;8.298;2023-01-25T22:24:28;5.30;75.40
23713;DHT22;12035;49.978;8.298;2023-01-25T22:29:24;5.20;75.40
23713;DHT22;12035;49.978;8.298;2023-01-25T22:34:22;5.20;75.40
23713;DHT22;12035;49.978;8.298;2023-01-25T22:39:19;5.10;75.40
23713;DHT22;12035;49.978;8.298;2023-01-25T22:44:20;5.00;75.40
23713;DHT22;12035;49.978;8.298;2023-01-25T22:49:17;4.90;75.70
23713;DHT22;12035;49.978;8.298;2023-01-25T22:54:14;4.90;76.10
23713;DHT22;12035;49.978;8.298;2023-01-25T22:59:11;4.90;76.20
23713;DHT22;12035;49.978;8.298;2023-01-25T23:04:14;4.90;76.00
23713;DHT22;12035;49.978;8.298;2023-01-25T23:09:11;5.00;76.00
23713;DHT22;12035;49.978;8.298;2023-01-25T23:14:11;5.00;76.20
23713;DHT22;12035;49.978;8.298;2023-01-25T23:19:27;5.00;75.90
23713;DHT22;12035;49.978;8.298;2023-01-25T23:24:24;5.00;75.90
23713;DHT22;12035;49.978;8.298;2023-01-25T23:29:22;5.00;75.90
23713;DHT22;12035;49.978;8.298;2023-01-25T23:34:20;5.00;75.70
23713;DHT22;12035;49.978;8.298;2023-01-25T23:39:18;5.00;75.60
23713;DHT22;12035;49.978;8.298;2023-01-25T23:44:18;5.00;75.70
23713;DHT22;12035;49.978;8.298;2023-01-25T23:49:15;5.00;75.70
23713;DHT22;12035;49.978;8.298;2023-01-25T23:54:13;5.00;75.70
23713;DHT22;12035;49.978;8.298;2023-01-25T23:59:11;5.00;75.70
